Impacts TAF Board INFO
FOR SITUATIONAL AWARENESS. NOT TO BE USED FOR FLIGHT PLANNING PURPOSES.
IDs:

KMIA - Miami Intl, FL, US

Issued at 1720 UTC 18 Feb 2018
Updated at 2020 UTC 18 Feb 2018
Potential Impact None Slight Moderate High
Time1953Z 18/21Z 18/22Z 18/23Z 19/00Z 19/01Z 19/02Z 19/03Z 19/04Z 19/05Z 19/06Z 19/07Z 19/08Z 19/09Z>>
Type OBS PRVL PRVL PRVL PRVL PRVL PRVL PRVL PRVL PRVL PRVL PRVL PRVL PRVL
VIS 10 >6 >6 >6 >6 >6 >6 >6 >6 >6 >6 >6 >6 >6
CIG -- 60 60 60 -- -- -- -- -- -- -- -- -- --
Cover SCT BKN BKN BKN SCT SCT SCT SCT SCT SCT SCT SCT SCT SCT
FltCat VFR VFR VFR VFR VFR VFR VFR VFR VFR VFR VFR VFR VFR VFR
WX -- -- -- -- -- -- -- -- -- -- -- -- -- --
WDir 110 110 110 110 90 90 90 90 90 90 90 90 90 90
WSpd 13 12 12 12 8 8 8 8 8 8 8 8 8 8
WGst -- -- -- -- -- -- -- -- -- -- -- -- -- --

Raw TAF
KMIA 181720Z 1818/1924 11012KT P6SM SCT030 BKN060
  FM190000 09008KT P6SM FEW030 SCT060
  FM191500 10015G25KT P6SM SCT035 BKN060


Raw METAR
KMIA 181953Z 11013KT 10SM SCT037 28/18 A3017 RMK AO2 SLP218 T02780178 $
KMIA 181853Z 09011KT 10SM BKN035 28/19 A3019 RMK AO2 SLP222 T02830189 $
KMIA 181753Z 11013KT 10SM SCT030 28/19 A3021 RMK AO2 SLP228 T02830189 10289 20217 58009 $

METAR Board
Radar Display
Forecast Discussion

FOR SITUATIONAL AWARENESS. NOT TO BE USED FOR FLIGHT PLANNING PURPOSES.